Nearby METAR Reports

 

KMHT - Manchester, New Hampshire, USA
Distance from station: W 16mi, 26km
Updated: Wed, 16-Jan-2019 12:53am EST
Partly cloudy
Partly cloudy
 Wind from calm
Wind: Calm
Temperature: 21°F , -6°C
Dew Point: 16°F , -9°C
Humidity: 80%
Barometer: 30.01 inHg , 1016.3 hPa
Clouds: Partly cloudy
Visibility: 10 miles , 16 km
Cloud details: Few Clouds 7500 ft
Partly cloudy 20000 ft
2019/01/16 05:53 KMHT 160553Z 00000KT 10SM FEW075 SCT200 M06/M09 A3001 RMK AO2 SLP181 T10611089 11017 21067 58017
KPSM - Portsmouth/Pease, New Hampshire, USA
Distance from station: ENE 17mi, 27km
Updated: Wed, 16-Jan-2019 12:56am EST
Mostly cloudy
Mostly cloudy
 Wind from calm
Wind: Calm
Temperature: 23°F , -5°C
Dew Point: 18°F , -8°C
Humidity: 80%
Barometer: 30.01 inHg , 1016.3 hPa
Clouds: Mostly cloudy
Visibility: 10 miles , 16 km
Cloud details: Mostly cloudy 7500 ft
2019/01/16 05:56 KPSM 160556Z 00000KT 10SM BKN075 M05/M08 A3001 RMK AO2A SLP166 T10531077 11026 21058 58015
 
KASH - Nashua/Boire Fld, New Hampshire, USA
Distance from station: WSW 24mi, 38km
Updated: Wed, 16-Jan-2019 12:56am EST
Clear
Clear
 Wind from calm
Wind: Calm
Temperature: 16°F , -9°C
Dew Point: 16°F , -9°C
Humidity: 100%
Barometer: 30.03 inHg , 1016.9 hPa
Clouds: Clear
Visibility: 10 miles , 16 km
2019/01/16 05:56 KASH 160556Z AUTO 00000KT 10SM CLR M09/M09 A3003 RMK AO2 SLP180 T10891094 11044 21094 58017 FZRANO $
KDAW - Rochester, New Hampshire, USA
Distance from station: NNE 24mi, 39km
Updated: Wed, 16-Jan-2019 12:51am EST
Overcast
Overcast
 Wind from calm
Wind: Calm
Temperature: 27°F , -3°C
Dew Point: 19°F , -7°C
Humidity: 74%
Barometer: 30.01 inHg , 1016.3 hPa
Clouds: Overcast
Visibility: 10 miles , 16 km
Cloud details: Overcast 7000 ft
2019/01/16 05:51 KDAW 160551Z AUTO 00000KT 10SM OVC070 M03/M07 A3001 RMK AO2 SLP162 T10331067 11028 21050 58017